Arthur Maersk — OXJH2 — position and weather

sailwx.info

Track history (hours):
 
Tides and Currents Weather Stations Pressure Air Temp Water Temp Dewpoint Dewpoint Depression Visibility Wind Speed Wind Dir Waves Ship Positions

Arthur Maersk

Last reported at 2016-Jun-28 06:33 UTC. Time now 2016-Jun-28 18:56 UTC.
Position N 22°45' E 120°06'.

Length 352 m; draft 10.7 m.

Type: Ship (hazmat cat A). MMSI: 220221000.

Date/timePositionNaut miles runAvg speedWind from/ knotsBaromVisibWave heightAir tempDewpointWater temp
2016-Jun-28 06:33N 22°45' E 120°06'18 8.7
2016-Jun-28 04:32N 22°33' E 120°20'0 0.0
2016-Jun-28 03:32N 22°33' E 120°20'0 0.0
2016-Jun-28 02:32N 22°33' E 120°20'0 0.0
2016-Jun-28 01:32N 22°33' E 120°20'0 0.0
2016-Jun-28 00:20N 22°33' E 120°20'0 0.0
2016-Jun-27 15:33N 22°33' E 120°20'6 6.4
2016-Jun-27 14:33N 22°31' E 120°13'1716.6
2016-Jun-27 13:33N 22°20' E 119°60'  
2016-Jun-23 16:18N 01°16' E 104°11'1115.1
2016-Jun-23 15:33N 01°15' E 103°60'1111.4
2016-Jun-23 14:33N 01°12' E 103°48'5 4.8
2016-Jun-23 13:33N 01°16' E 103°46'0 0.0
2016-Jun-23 12:15N 01°16' E 103°46'0 0.0
2016-Jun-23 11:27N 01°16' E 103°46'0 0.0
2016-Jun-23 10:33N 01°16' E 103°46'0 0.0
2016-Jun-23 09:09N 01°16' E 103°46'0 0.0
2016-Jun-23 08:33N 01°16' E 103°46'0 0.0
2016-Jun-23 07:33N 01°16' E 103°46'0 0.0
2016-Jun-23 04:09N 01°16' E 103°46'0 0.0
2016-Jun-23 03:27N 01°16' E 103°46'0 0.0
2016-Jun-23 02:33N 01°16' E 103°46'0 0.0
2016-Jun-23 01:33N 01°16' E 103°46'0 0.0
2016-Jun-23 00:33N 01°16' E 103°46'0 0.0
2016-Jun-22 23:09N 01°16' E 103°46'0 0.0
2016-Jun-22 22:33N 01°16' E 103°46'0 0.0
2016-Jun-22 21:33N 01°16' E 103°46'0 0.0
2016-Jun-22 20:33N 01°16' E 103°46'0 0.0
2016-Jun-22 19:30N 01°16' E 103°46'0 0.0
2016-Jun-22 18:15N 01°16' E 103°46'0 0.0
2016-Jun-22 17:27N 01°16' E 103°46'0 0.0
2016-Jun-22 16:33N 01°16' E 103°46'0 0.0
2016-Jun-22 14:33N 01°16' E 103°46'0 0.0
2016-Jun-22 13:33N 01°16' E 103°46'0 0.0
2016-Jun-22 12:33N 01°16' E 103°46'1 0.6
2016-Jun-22 11:33N 01°16' E 103°46'6 6.4
2016-Jun-22 10:33N 01°13' E 103°40'7310.1
2016-Jun-22 03:22N 01°44' E 102°35'1113.9
2016-Jun-22 02:33N 01°49' E 102°24'1514.7
2016-Jun-22 01:33N 01°56' E 102°11'  
Track history (hours):
 
Tides and Currents Weather Stations Pressure Air Temp Water Temp Dewpoint Dewpoint Depression Visibility Wind Speed Wind Dir Waves Ship Positions

Arthur Maersk

Last reported at 2016-Jun-28 06:33 UTC. Time now 2016-Jun-28 18:56 UTC.
Position N 22°45' E 120°06'.

Length 352 m; draft 10.7 m.

Type: Ship (hazmat cat A). MMSI: 220221000.

Date/timePositionNaut miles runAvg speedWind from/ knotsBaromVisibWave heightAir tempDewpointWater temp
2016-Jun-28 06:33N 22°45' E 120°06'18 8.7
2016-Jun-28 04:32N 22°33' E 120°20'0 0.0
2016-Jun-28 03:32N 22°33' E 120°20'0 0.0
2016-Jun-28 02:32N 22°33' E 120°20'0 0.0
2016-Jun-28 01:32N 22°33' E 120°20'0 0.0
2016-Jun-28 00:20N 22°33' E 120°20'0 0.0
2016-Jun-27 15:33N 22°33' E 120°20'6 6.4
2016-Jun-27 14:33N 22°31' E 120°13'1716.6
2016-Jun-27 13:33N 22°20' E 119°60'  
2016-Jun-23 16:18N 01°16' E 104°11'1115.1
2016-Jun-23 15:33N 01°15' E 103°60'1111.4
2016-Jun-23 14:33N 01°12' E 103°48'5 4.8
2016-Jun-23 13:33N 01°16' E 103°46'0 0.0
2016-Jun-23 12:15N 01°16' E 103°46'0 0.0
2016-Jun-23 11:27N 01°16' E 103°46'0 0.0
2016-Jun-23 10:33N 01°16' E 103°46'0 0.0
2016-Jun-23 09:09N 01°16' E 103°46'0 0.0
2016-Jun-23 08:33N 01°16' E 103°46'0 0.0
2016-Jun-23 07:33N 01°16' E 103°46'0 0.0
2016-Jun-23 04:09N 01°16' E 103°46'0 0.0
2016-Jun-23 03:27N 01°16' E 103°46'0 0.0
2016-Jun-23 02:33N 01°16' E 103°46'0 0.0
2016-Jun-23 01:33N 01°16' E 103°46'0 0.0
2016-Jun-23 00:33N 01°16' E 103°46'0 0.0
2016-Jun-22 23:09N 01°16' E 103°46'0 0.0
2016-Jun-22 22:33N 01°16' E 103°46'0 0.0
2016-Jun-22 21:33N 01°16' E 103°46'0 0.0
2016-Jun-22 20:33N 01°16' E 103°46'0 0.0
2016-Jun-22 19:30N 01°16' E 103°46'0 0.0
2016-Jun-22 18:15N 01°16' E 103°46'0 0.0
2016-Jun-22 17:27N 01°16' E 103°46'0 0.0
2016-Jun-22 16:33N 01°16' E 103°46'0 0.0
2016-Jun-22 14:33N 01°16' E 103°46'0 0.0
2016-Jun-22 13:33N 01°16' E 103°46'0 0.0
2016-Jun-22 12:33N 01°16' E 103°46'1 0.6
2016-Jun-22 11:33N 01°16' E 103°46'6 6.4
2016-Jun-22 10:33N 01°13' E 103°40'7310.1
2016-Jun-22 03:22N 01°44' E 102°35'1113.9
2016-Jun-22 02:33N 01°49' E 102°24'1514.7
2016-Jun-22 01:33N 01°56' E 102°11'  

Dump ship's entire track history